Thompson, Michigan
Current Conditions -  °F | °C
As of 10:54 AM on Friday 24 Oct 2014 (Local Time) from KISQ Reporting Station
Overcast Overcast  
Wind Chill: 46°   Ceiling: 300
Heat Index: 48°   Visibility: 7mi
Dew Point: 47°   Wind: 5mph
Humidity: 98%   Direction: 220°SW
Pressure: 29.98"   Gusts: NA
Location:  46.1571°N, 86.3397°W
Report Text: KISQ 241454Z AUTO 22004KT 7SM OVC003 09/09 A2998 RMK AO2 T00880085
Loading
Personal Weather Stations






























Interactive Weather Map New forecast layout! Learn more

10-Day Weather Forecast

Advertisements
Track Severe Weather on mobile